Weather at Joyner Airport

Public forecast

Using degrees Fahrenheit for public forecast. Weather courtesy of forecast.io.

Closest aviation weather report (METAR) to Joyner Airport

Closest report is Anoka County-Blaine (Janes Field) Airport, 15.1 nm (27.9 km) SE.

2024/07/25 10:15 (retrieved 8 minutes ago)

KANE 251015Z AUTO 00000KT 10SM CLR 14/14 A3024 RMK AO2

Closest aviation forecast (TAF) to Joyner Airport

Closest forecast is Minneapolis–Saint Paul International Airport / Wold–Chamberlain Field, 28.3 nm (52.4 km) SSE.

2024/07/25 09:00 Ammendment (retrieved 1 hour ago)

TAF AMD KMSP 250857Z 2509/2612 11004KT P6SM SKC FM251600 15009KT P6SM FEW050 FM260100 15008KT P6SM SKC